sensor_id;sensor_type;location;lat;lon;timestamp;P1;durP1;ratioP1;P2;durP2;ratioP2
7575;SDS011;3829;50.798;4.358;2023-04-07T00:01:54;15.77;;;6.90;;
7575;SDS011;3829;50.798;4.358;2023-04-07T00:04:20;17.47;;;6.67;;
7575;SDS011;3829;50.798;4.358;2023-04-07T00:06:46;20.90;;;6.63;;
7575;SDS011;3829;50.798;4.358;2023-04-07T00:09:11;17.00;;;6.50;;
7575;SDS011;3829;50.798;4.358;2023-04-07T00:11:37;15.60;;;6.30;;
7575;SDS011;3829;50.798;4.358;2023-04-07T00:14:03;14.70;;;6.20;;
7575;SDS011;3829;50.798;4.358;2023-04-07T00:16:28;15.47;;;6.70;;
7575;SDS011;3829;50.798;4.358;2023-04-07T00:18:54;18.97;;;6.87;;
7575;SDS011;3829;50.798;4.358;2023-04-07T00:21:19;12.90;;;6.37;;
7575;SDS011;3829;50.798;4.358;2023-04-07T00:23:45;15.53;;;6.10;;
7575;SDS011;3829;50.798;4.358;2023-04-07T00:26:11;20.00;;;6.20;;
7575;SDS011;3829;50.798;4.358;2023-04-07T00:28:37;15.20;;;6.20;;
7575;SDS011;3829;50.798;4.358;2023-04-07T00:31:02;15.83;;;6.50;;
7575;SDS011;3829;50.798;4.358;2023-04-07T00:33:28;18.57;;;6.90;;
7575;SDS011;3829;50.798;4.358;2023-04-07T00:35:54;15.97;;;6.73;;
7575;SDS011;3829;50.798;4.358;2023-04-07T00:38:21;17.40;;;6.90;;
7575;SDS011;3829;50.798;4.358;2023-04-07T00:40:47;17.50;;;7.17;;
7575;SDS011;3829;50.798;4.358;2023-04-07T00:43:13;18.73;;;7.50;;
7575;SDS011;3829;50.798;4.358;2023-04-07T00:45:38;14.20;;;6.87;;
7575;SDS011;3829;50.798;4.358;2023-04-07T00:48:04;21.03;;;6.30;;
7575;SDS011;3829;50.798;4.358;2023-04-07T00:50:30;18.20;;;7.47;;
7575;SDS011;3829;50.798;4.358;2023-04-07T00:52:55;24.23;;;7.23;;
7575;SDS011;3829;50.798;4.358;2023-04-07T00:55:21;20.27;;;6.67;;
7575;SDS011;3829;50.798;4.358;2023-04-07T00:57:47;21.00;;;7.33;;
7575;SDS011;3829;50.798;4.358;2023-04-07T01:00:13;16.03;;;6.93;;
7575;SDS011;3829;50.798;4.358;2023-04-07T01:02:44;14.83;;;7.27;;
7575;SDS011;3829;50.798;4.358;2023-04-07T01:05:23;12.13;;;7.20;;
7575;SDS011;3829;50.798;4.358;2023-04-07T01:08:08;17.13;;;6.80;;
7575;SDS011;3829;50.798;4.358;2023-04-07T01:10:43;20.90;;;6.53;;
7575;SDS011;3829;50.798;4.358;2023-04-07T01:13:21;14.33;;;6.47;;
7575;SDS011;3829;50.798;4.358;2023-04-07T01:15:51;14.77;;;6.60;;
7575;SDS011;3829;50.798;4.358;2023-04-07T01:18:21;13.13;;;6.83;;
7575;SDS011;3829;50.798;4.358;2023-04-07T01:20:50;16.70;;;7.30;;
7575;SDS011;3829;50.798;4.358;2023-04-07T01:23:22;23.23;;;8.60;;
7575;SDS011;3829;50.798;4.358;2023-04-07T01:26:09;25.50;;;8.07;;
7575;SDS011;3829;50.798;4.358;2023-04-07T01:31:38;12.70;;;7.33;;
7575;SDS011;3829;50.798;4.358;2023-04-07T01:34:05;12.70;;;8.03;;
7575;SDS011;3829;50.798;4.358;2023-04-07T01:36:36;14.37;;;7.70;;
7575;SDS011;3829;50.798;4.358;2023-04-07T01:39:02;12.87;;;7.43;;
7575;SDS011;3829;50.798;4.358;2023-04-07T01:41:29;14.53;;;7.20;;
7575;SDS011;3829;50.798;4.358;2023-04-07T01:43:56;14.27;;;7.93;;
7575;SDS011;3829;50.798;4.358;2023-04-07T01:46:23;18.40;;;8.93;;
7575;SDS011;3829;50.798;4.358;2023-04-07T01:48:49;13.73;;;6.93;;
7575;SDS011;3829;50.798;4.358;2023-04-07T01:51:16;17.93;;;7.60;;
7575;SDS011;3829;50.798;4.358;2023-04-07T01:53:46;15.67;;;7.70;;
7575;SDS011;3829;50.798;4.358;2023-04-07T01:56:13;16.63;;;8.17;;
7575;SDS011;3829;50.798;4.358;2023-04-07T01:58:38;19.67;;;8.13;;
7575;SDS011;3829;50.798;4.358;2023-04-07T02:01:04;15.03;;;8.27;;
7575;SDS011;3829;50.798;4.358;2023-04-07T02:03:30;14.63;;;8.20;;
7575;SDS011;3829;50.798;4.358;2023-04-07T02:06:03;14.07;;;7.43;;
7575;SDS011;3829;50.798;4.358;2023-04-07T02:08:31;15.13;;;7.70;;
7575;SDS011;3829;50.798;4.358;2023-04-07T02:11:00;12.33;;;7.93;;
7575;SDS011;3829;50.798;4.358;2023-04-07T02:13:31;16.60;;;8.63;;
7575;SDS011;3829;50.798;4.358;2023-04-07T02:15:59;15.13;;;8.03;;
7575;SDS011;3829;50.798;4.358;2023-04-07T02:18:26;15.17;;;8.50;;
7575;SDS011;3829;50.798;4.358;2023-04-07T02:20:54;17.03;;;8.23;;
7575;SDS011;3829;50.798;4.358;2023-04-07T02:23:20;16.43;;;7.63;;
7575;SDS011;3829;50.798;4.358;2023-04-07T02:25:46;14.53;;;8.27;;
7575;SDS011;3829;50.798;4.358;2023-04-07T02:28:12;18.67;;;7.80;;
7575;SDS011;3829;50.798;4.358;2023-04-07T02:30:37;14.33;;;8.00;;
7575;SDS011;3829;50.798;4.358;2023-04-07T02:33:03;14.73;;;8.13;;
7575;SDS011;3829;50.798;4.358;2023-04-07T02:35:29;17.13;;;7.93;;
7575;SDS011;3829;50.798;4.358;2023-04-07T02:37:55;13.03;;;7.70;;
7575;SDS011;3829;50.798;4.358;2023-04-07T02:40:20;16.20;;;8.50;;
7575;SDS011;3829;50.798;4.358;2023-04-07T02:42:46;15.17;;;8.60;;
7575;SDS011;3829;50.798;4.358;2023-04-07T02:45:12;14.97;;;8.00;;
7575;SDS011;3829;50.798;4.358;2023-04-07T02:47:37;15.17;;;8.33;;
7575;SDS011;3829;50.798;4.358;2023-04-07T02:50:03;15.60;;;8.27;;
7575;SDS011;3829;50.798;4.358;2023-04-07T02:52:30;15.90;;;8.40;;
7575;SDS011;3829;50.798;4.358;2023-04-07T02:54:55;12.47;;;7.47;;
7575;SDS011;3829;50.798;4.358;2023-04-07T02:57:21;15.50;;;7.37;;
7575;SDS011;3829;50.798;4.358;2023-04-07T02:59:46;15.13;;;7.93;;
7575;SDS011;3829;50.798;4.358;2023-04-07T03:02:12;13.90;;;8.10;;
7575;SDS011;3829;50.798;4.358;2023-04-07T03:04:38;15.13;;;7.50;;
7575;SDS011;3829;50.798;4.358;2023-04-07T03:07:03;16.90;;;7.37;;
7575;SDS011;3829;50.798;4.358;2023-04-07T03:09:29;11.40;;;6.33;;
7575;SDS011;3829;50.798;4.358;2023-04-07T03:11:54;13.10;;;6.70;;
7575;SDS011;3829;50.798;4.358;2023-04-07T03:14:20;12.10;;;6.37;;
7575;SDS011;3829;50.798;4.358;2023-04-07T03:16:46;14.23;;;7.33;;
7575;SDS011;3829;50.798;4.358;2023-04-07T03:19:12;13.50;;;9.03;;
7575;SDS011;3829;50.798;4.358;2023-04-07T03:21:37;10.00;;;6.27;;
7575;SDS011;3829;50.798;4.358;2023-04-07T03:24:06;12.00;;;6.53;;
7575;SDS011;3829;50.798;4.358;2023-04-07T03:26:32;18.73;;;6.33;;
7575;SDS011;3829;50.798;4.358;2023-04-07T03:28:58;11.53;;;5.93;;
7575;SDS011;3829;50.798;4.358;2023-04-07T03:31:23;10.20;;;5.97;;
7575;SDS011;3829;50.798;4.358;2023-04-07T03:33:49;7.83;;;5.27;;
7575;SDS011;3829;50.798;4.358;2023-04-07T03:36:15;9.77;;;5.63;;
7575;SDS011;3829;50.798;4.358;2023-04-07T03:38:42;12.70;;;6.43;;
7575;SDS011;3829;50.798;4.358;2023-04-07T03:41:08;10.83;;;5.40;;
7575;SDS011;3829;50.798;4.358;2023-04-07T03:43:34;12.90;;;6.20;;
7575;SDS011;3829;50.798;4.358;2023-04-07T03:46:00;13.23;;;6.03;;
7575;SDS011;3829;50.798;4.358;2023-04-07T03:48:25;13.13;;;7.20;;
7575;SDS011;3829;50.798;4.358;2023-04-07T03:50:51;9.87;;;5.87;;
7575;SDS011;3829;50.798;4.358;2023-04-07T03:53:16;10.10;;;6.57;;
7575;SDS011;3829;50.798;4.358;2023-04-07T03:55:43;12.20;;;6.23;;
7575;SDS011;3829;50.798;4.358;2023-04-07T03:58:09;11.97;;;6.93;;
7575;SDS011;3829;50.798;4.358;2023-04-07T04:00:35;13.53;;;7.30;;
7575;SDS011;3829;50.798;4.358;2023-04-07T04:03:01;14.03;;;6.53;;
7575;SDS011;3829;50.798;4.358;2023-04-07T04:05:27;14.93;;;7.80;;
7575;SDS011;3829;50.798;4.358;2023-04-07T04:07:52;15.80;;;7.53;;
7575;SDS011;3829;50.798;4.358;2023-04-07T04:10:18;18.27;;;8.97;;
7575;SDS011;3829;50.798;4.358;2023-04-07T04:12:45;18.20;;;8.60;;
7575;SDS011;3829;50.798;4.358;2023-04-07T04:15:12;17.13;;;9.13;;
7575;SDS011;3829;50.798;4.358;2023-04-07T04:17:38;26.57;;;10.60;;
7575;SDS011;3829;50.798;4.358;2023-04-07T04:20:04;24.70;;;10.47;;
7575;SDS011;3829;50.798;4.358;2023-04-07T04:22:30;25.93;;;10.77;;
7575;SDS011;3829;50.798;4.358;2023-04-07T04:24:56;30.63;;;11.57;;
7575;SDS011;3829;50.798;4.358;2023-04-07T04:27:21;24.00;;;10.67;;
7575;SDS011;3829;50.798;4.358;2023-04-07T04:29:47;31.53;;;11.80;;
7575;SDS011;3829;50.798;4.358;2023-04-07T04:32:13;34.10;;;11.63;;
7575;SDS011;3829;50.798;4.358;2023-04-07T04:34:38;28.07;;;11.80;;
7575;SDS011;3829;50.798;4.358;2023-04-07T04:37:06;30.67;;;12.00;;
7575;SDS011;3829;50.798;4.358;2023-04-07T04:39:31;27.83;;;11.20;;
7575;SDS011;3829;50.798;4.358;2023-04-07T04:41:57;26.97;;;11.77;;
7575;SDS011;3829;50.798;4.358;2023-04-07T04:44:23;37.17;;;13.47;;
7575;SDS011;3829;50.798;4.358;2023-04-07T04:46:49;27.77;;;11.73;;
7575;SDS011;3829;50.798;4.358;2023-04-07T04:49:14;41.90;;;15.13;;
7575;SDS011;3829;50.798;4.358;2023-04-07T04:51:40;40.60;;;14.73;;
7575;SDS011;3829;50.798;4.358;2023-04-07T04:54:06;39.00;;;15.43;;
7575;SDS011;3829;50.798;4.358;2023-04-07T04:56:32;37.83;;;13.93;;
7575;SDS011;3829;50.798;4.358;2023-04-07T04:58:58;49.37;;;15.10;;
7575;SDS011;3829;50.798;4.358;2023-04-07T05:01:24;45.33;;;14.27;;
7575;SDS011;3829;50.798;4.358;2023-04-07T05:03:49;46.33;;;14.67;;
7575;SDS011;3829;50.798;4.358;2023-04-07T05:06:15;33.37;;;14.60;;
7575;SDS011;3829;50.798;4.358;2023-04-07T05:08:41;32.73;;;13.73;;
7575;SDS011;3829;50.798;4.358;2023-04-07T05:11:07;39.30;;;14.07;;
7575;SDS011;3829;50.798;4.358;2023-04-07T05:13:33;40.17;;;14.27;;
7575;SDS011;3829;50.798;4.358;2023-04-07T05:15:59;39.40;;;14.43;;
7575;SDS011;3829;50.798;4.358;2023-04-07T05:18:25;50.53;;;15.97;;
7575;SDS011;3829;50.798;4.358;2023-04-07T05:20:51;50.00;;;15.67;;
7575;SDS011;3829;50.798;4.358;2023-04-07T05:23:16;40.33;;;15.80;;
7575;SDS011;3829;50.798;4.358;2023-04-07T05:25:42;40.73;;;15.60;;
7575;SDS011;3829;50.798;4.358;2023-04-07T05:28:07;41.03;;;14.43;;
7575;SDS011;3829;50.798;4.358;2023-04-07T05:30:33;47.40;;;15.77;;
7575;SDS011;3829;50.798;4.358;2023-04-07T05:32:59;43.27;;;14.73;;
7575;SDS011;3829;50.798;4.358;2023-04-07T05:35:25;48.03;;;16.33;;
7575;SDS011;3829;50.798;4.358;2023-04-07T05:37:50;36.50;;;15.30;;
7575;SDS011;3829;50.798;4.358;2023-04-07T05:40:16;42.60;;;15.63;;
7575;SDS011;3829;50.798;4.358;2023-04-07T05:42:42;49.20;;;14.63;;
7575;SDS011;3829;50.798;4.358;2023-04-07T05:45:08;54.97;;;15.80;;
7575;SDS011;3829;50.798;4.358;2023-04-07T05:47:34;40.63;;;14.87;;
7575;SDS011;3829;50.798;4.358;2023-04-07T05:49:59;42.10;;;15.80;;
7575;SDS011;3829;50.798;4.358;2023-04-07T05:52:25;50.23;;;15.63;;
7575;SDS011;3829;50.798;4.358;2023-04-07T05:54:51;37.33;;;14.27;;
7575;SDS011;3829;50.798;4.358;2023-04-07T05:57:16;47.43;;;15.67;;
7575;SDS011;3829;50.798;4.358;2023-04-07T05:59:42;43.00;;;15.23;;
7575;SDS011;3829;50.798;4.358;2023-04-07T06:02:08;46.73;;;15.10;;
7575;SDS011;3829;50.798;4.358;2023-04-07T06:04:33;34.50;;;14.03;;
7575;SDS011;3829;50.798;4.358;2023-04-07T06:07:00;32.37;;;13.40;;
7575;SDS011;3829;50.798;4.358;2023-04-07T06:09:26;35.40;;;14.17;;
7575;SDS011;3829;50.798;4.358;2023-04-07T06:11:51;31.87;;;13.87;;
7575;SDS011;3829;50.798;4.358;2023-04-07T06:14:17;45.50;;;15.03;;
7575;SDS011;3829;50.798;4.358;2023-04-07T06:16:43;38.97;;;13.30;;
7575;SDS011;3829;50.798;4.358;2023-04-07T06:19:08;41.70;;;16.00;;
7575;SDS011;3829;50.798;4.358;2023-04-07T06:21:34;38.47;;;14.97;;
7575;SDS011;3829;50.798;4.358;2023-04-07T06:24:00;34.53;;;14.27;;
7575;SDS011;3829;50.798;4.358;2023-04-07T06:26:25;37.03;;;15.03;;
7575;SDS011;3829;50.798;4.358;2023-04-07T06:28:51;47.17;;;15.33;;
7575;SDS011;3829;50.798;4.358;2023-04-07T06:31:18;34.47;;;15.10;;
7575;SDS011;3829;50.798;4.358;2023-04-07T06:33:44;39.93;;;15.63;;
7575;SDS011;3829;50.798;4.358;2023-04-07T06:36:10;44.53;;;16.67;;
7575;SDS011;3829;50.798;4.358;2023-04-07T06:38:36;44.13;;;17.30;;
7575;SDS011;3829;50.798;4.358;2023-04-07T06:41:02;38.77;;;16.57;;
7575;SDS011;3829;50.798;4.358;2023-04-07T06:43:28;42.07;;;15.77;;
7575;SDS011;3829;50.798;4.358;2023-04-07T06:45:54;51.37;;;17.17;;
7575;SDS011;3829;50.798;4.358;2023-04-07T06:48:20;42.83;;;17.33;;
7575;SDS011;3829;50.798;4.358;2023-04-07T06:50:48;39.33;;;16.90;;
7575;SDS011;3829;50.798;4.358;2023-04-07T06:53:13;45.43;;;16.30;;
7575;SDS011;3829;50.798;4.358;2023-04-07T06:55:39;37.47;;;17.10;;
7575;SDS011;3829;50.798;4.358;2023-04-07T06:58:05;37.70;;;17.07;;
7575;SDS011;3829;50.798;4.358;2023-04-07T07:00:31;36.37;;;15.33;;
7575;SDS011;3829;50.798;4.358;2023-04-07T07:02:56;36.37;;;14.87;;
7575;SDS011;3829;50.798;4.358;2023-04-07T07:05:22;34.67;;;16.40;;
7575;SDS011;3829;50.798;4.358;2023-04-07T07:07:48;29.33;;;14.07;;
7575;SDS011;3829;50.798;4.358;2023-04-07T07:10:15;33.90;;;14.63;;
7575;SDS011;3829;50.798;4.358;2023-04-07T07:12:42;28.83;;;13.90;;
7575;SDS011;3829;50.798;4.358;2023-04-07T07:15:08;25.57;;;12.90;;
7575;SDS011;3829;50.798;4.358;2023-04-07T07:17:34;25.17;;;12.73;;
7575;SDS011;3829;50.798;4.358;2023-04-07T07:20:00;23.00;;;12.57;;
7575;SDS011;3829;50.798;4.358;2023-04-07T07:22:25;30.50;;;11.73;;
7575;SDS011;3829;50.798;4.358;2023-04-07T07:24:51;26.17;;;11.70;;
7575;SDS011;3829;50.798;4.358;2023-04-07T07:27:16;24.50;;;11.83;;
7575;SDS011;3829;50.798;4.358;2023-04-07T07:29:42;22.53;;;9.80;;
7575;SDS011;3829;50.798;4.358;2023-04-07T07:32:08;26.70;;;10.20;;
7575;SDS011;3829;50.798;4.358;2023-04-07T07:34:33;21.40;;;11.50;;
7575;SDS011;3829;50.798;4.358;2023-04-07T07:36:59;19.80;;;10.23;;
7575;SDS011;3829;50.798;4.358;2023-04-07T07:39:25;17.77;;;9.73;;
7575;SDS011;3829;50.798;4.358;2023-04-07T07:41:52;19.13;;;11.17;;
7575;SDS011;3829;50.798;4.358;2023-04-07T07:44:19;21.60;;;10.87;;
7575;SDS011;3829;50.798;4.358;2023-04-07T07:46:44;18.00;;;10.73;;
7575;SDS011;3829;50.798;4.358;2023-04-07T07:49:10;18.17;;;9.43;;
7575;SDS011;3829;50.798;4.358;2023-04-07T07:51:36;17.60;;;9.40;;
7575;SDS011;3829;50.798;4.358;2023-04-07T07:54:01;16.17;;;9.57;;
7575;SDS011;3829;50.798;4.358;2023-04-07T07:56:27;14.83;;;8.03;;
7575;SDS011;3829;50.798;4.358;2023-04-07T07:58:53;15.47;;;8.33;;
7575;SDS011;3829;50.798;4.358;2023-04-07T08:01:18;12.57;;;7.27;;
7575;SDS011;3829;50.798;4.358;2023-04-07T08:03:44;14.50;;;7.23;;
7575;SDS011;3829;50.798;4.358;2023-04-07T08:06:11;12.90;;;7.27;;
7575;SDS011;3829;50.798;4.358;2023-04-07T08:08:37;15.70;;;7.07;;
7575;SDS011;3829;50.798;4.358;2023-04-07T08:11:03;14.50;;;6.80;;
7575;SDS011;3829;50.798;4.358;2023-04-07T08:13:28;10.77;;;6.93;;
7575;SDS011;3829;50.798;4.358;2023-04-07T08:15:54;13.40;;;7.17;;
7575;SDS011;3829;50.798;4.358;2023-04-07T08:18:19;15.23;;;6.67;;
7575;SDS011;3829;50.798;4.358;2023-04-07T08:20:45;15.57;;;7.30;;
7575;SDS011;3829;50.798;4.358;2023-04-07T08:23:11;14.17;;;7.03;;
7575;SDS011;3829;50.798;4.358;2023-04-07T08:25:37;12.77;;;7.67;;
7575;SDS011;3829;50.798;4.358;2023-04-07T08:28:04;17.20;;;7.03;;
7575;SDS011;3829;50.798;4.358;2023-04-07T08:30:30;17.07;;;6.10;;
7575;SDS011;3829;50.798;4.358;2023-04-07T08:32:55;10.47;;;5.50;;
7575;SDS011;3829;50.798;4.358;2023-04-07T08:35:21;12.67;;;5.63;;
7575;SDS011;3829;50.798;4.358;2023-04-07T08:37:47;9.27;;;5.13;;
7575;SDS011;3829;50.798;4.358;2023-04-07T08:40:13;9.20;;;5.40;;
7575;SDS011;3829;50.798;4.358;2023-04-07T08:42:40;8.50;;;5.33;;
7575;SDS011;3829;50.798;4.358;2023-04-07T08:45:08;10.73;;;5.77;;
7575;SDS011;3829;50.798;4.358;2023-04-07T08:47:34;10.53;;;5.27;;
7575;SDS011;3829;50.798;4.358;2023-04-07T08:50:05;10.33;;;5.07;;
7575;SDS011;3829;50.798;4.358;2023-04-07T08:52:33;11.30;;;5.33;;
7575;SDS011;3829;50.798;4.358;2023-04-07T08:55:02;9.27;;;5.57;;
7575;SDS011;3829;50.798;4.358;2023-04-07T08:57:31;12.90;;;5.33;;
7575;SDS011;3829;50.798;4.358;2023-04-07T08:59:58;6.83;;;4.73;;
7575;SDS011;3829;50.798;4.358;2023-04-07T09:02:34;8.83;;;4.70;;
7575;SDS011;3829;50.798;4.358;2023-04-07T09:05:04;7.13;;;4.53;;
7575;SDS011;3829;50.798;4.358;2023-04-07T09:07:32;8.40;;;4.20;;
7575;SDS011;3829;50.798;4.358;2023-04-07T09:09:59;12.13;;;4.87;;
7575;SDS011;3829;50.798;4.358;2023-04-07T09:12:26;7.63;;;4.73;;
7575;SDS011;3829;50.798;4.358;2023-04-07T09:14:52;10.30;;;5.13;;
7575;SDS011;3829;50.798;4.358;2023-04-07T09:17:18;11.67;;;5.43;;
7575;SDS011;3829;50.798;4.358;2023-04-07T09:19:45;7.97;;;4.27;;
7575;SDS011;3829;50.798;4.358;2023-04-07T09:22:11;9.50;;;5.23;;
7575;SDS011;3829;50.798;4.358;2023-04-07T09:24:38;8.70;;;4.80;;
7575;SDS011;3829;50.798;4.358;2023-04-07T09:27:15;8.70;;;4.00;;
7575;SDS011;3829;50.798;4.358;2023-04-07T09:29:43;12.93;;;4.30;;
7575;SDS011;3829;50.798;4.358;2023-04-07T09:32:09;4.00;;;3.40;;
7575;SDS011;3829;50.798;4.358;2023-04-07T09:34:37;8.77;;;3.10;;
7575;SDS011;3829;50.798;4.358;2023-04-07T09:37:05;6.03;;;3.90;;
7575;SDS011;3829;50.798;4.358;2023-04-07T09:39:33;10.80;;;3.07;;
7575;SDS011;3829;50.798;4.358;2023-04-07T09:42:13;5.30;;;2.63;;
7575;SDS011;3829;50.798;4.358;2023-04-07T09:44:39;2.80;;;1.90;;
7575;SDS011;3829;50.798;4.358;2023-04-07T09:47:05;4.73;;;1.50;;
7575;SDS011;3829;50.798;4.358;2023-04-07T09:49:31;3.40;;;1.47;;
7575;SDS011;3829;50.798;4.358;2023-04-07T09:52:02;4.73;;;1.50;;
7575;SDS011;3829;50.798;4.358;2023-04-07T09:57:02;3.90;;;1.63;;
7575;SDS011;3829;50.798;4.358;2023-04-07T09:59:29;3.67;;;1.57;;
7575;SDS011;3829;50.798;4.358;2023-04-07T10:01:56;2.90;;;1.50;;
7575;SDS011;3829;50.798;4.358;2023-04-07T10:04:25;4.03;;;1.60;;
7575;SDS011;3829;50.798;4.358;2023-04-07T10:06:52;2.47;;;1.40;;
7575;SDS011;3829;50.798;4.358;2023-04-07T10:09:18;4.30;;;1.63;;
7575;SDS011;3829;50.798;4.358;2023-04-07T10:11:47;4.60;;;1.60;;
7575;SDS011;3829;50.798;4.358;2023-04-07T10:14:14;6.57;;;1.60;;
7575;SDS011;3829;50.798;4.358;2023-04-07T10:16:41;3.30;;;1.27;;
7575;SDS011;3829;50.798;4.358;2023-04-07T10:19:07;6.60;;;1.50;;
7575;SDS011;3829;50.798;4.358;2023-04-07T10:21:34;3.17;;;1.70;;
7575;SDS011;3829;50.798;4.358;2023-04-07T10:26:55;1.73;;;1.50;;
7575;SDS011;3829;50.798;4.358;2023-04-07T10:29:23;4.97;;;1.50;;
7575;SDS011;3829;50.798;4.358;2023-04-07T10:31:51;6.00;;;1.50;;
7575;SDS011;3829;50.798;4.358;2023-04-07T10:34:17;3.07;;;1.27;;
7575;SDS011;3829;50.798;4.358;2023-04-07T10:37:13;2.13;;;1.60;;
7575;SDS011;3829;50.798;4.358;2023-04-07T10:39:41;4.65;;;2.05;;
7575;SDS011;3829;50.798;4.358;2023-04-07T10:42:43;5.13;;;2.50;;
7575;SDS011;3829;50.798;4.358;2023-04-07T10:45:03;6.13;;;2.60;;
7575;SDS011;3829;50.798;4.358;2023-04-07T10:47:29;6.07;;;2.80;;
7575;SDS011;3829;50.798;4.358;2023-04-07T10:52:40;9.50;;;2.63;;
7575;SDS011;3829;50.798;4.358;2023-04-07T11:00:41;4.60;;;2.20;;
7575;SDS011;3829;50.798;4.358;2023-04-07T11:03:28;2.83;;;1.93;;
7575;SDS011;3829;50.798;4.358;2023-04-07T11:06:05;4.60;;;2.20;;
7575;SDS011;3829;50.798;4.358;2023-04-07T11:08:39;6.53;;;2.70;;
7575;SDS011;3829;50.798;4.358;2023-04-07T11:11:06;5.53;;;2.80;;
7575;SDS011;3829;50.798;4.358;2023-04-07T11:13:40;6.80;;;2.60;;
7575;SDS011;3829;50.798;4.358;2023-04-07T11:16:06;5.40;;;2.20;;
7575;SDS011;3829;50.798;4.358;2023-04-07T11:18:34;5.73;;;2.47;;
7575;SDS011;3829;50.798;4.358;2023-04-07T11:21:01;7.23;;;2.70;;
7575;SDS011;3829;50.798;4.358;2023-04-07T11:23:29;8.60;;;2.43;;
7575;SDS011;3829;50.798;4.358;2023-04-07T11:26:05;9.87;;;3.03;;
7575;SDS011;3829;50.798;4.358;2023-04-07T11:28:32;4.40;;;2.50;;
7575;SDS011;3829;50.798;4.358;2023-04-07T11:30:58;6.43;;;2.40;;
7575;SDS011;3829;50.798;4.358;2023-04-07T11:33:25;12.33;;;2.87;;
7575;SDS011;3829;50.798;4.358;2023-04-07T11:35:54;6.33;;;2.67;;
7575;SDS011;3829;50.798;4.358;2023-04-07T11:38:36;4.33;;;2.77;;
7575;SDS011;3829;50.798;4.358;2023-04-07T11:41:12;3.37;;;2.20;;
7575;SDS011;3829;50.798;4.358;2023-04-07T11:43:39;6.83;;;2.20;;
7575;SDS011;3829;50.798;4.358;2023-04-07T11:46:09;7.63;;;2.33;;
7575;SDS011;3829;50.798;4.358;2023-04-07T11:48:35;2.70;;;2.50;;
7575;SDS011;3829;50.798;4.358;2023-04-07T11:51:02;7.43;;;2.47;;
7575;SDS011;3829;50.798;4.358;2023-04-07T11:53:29;9.60;;;4.10;;
7575;SDS011;3829;50.798;4.358;2023-04-07T11:56:02;10.77;;;3.20;;
7575;SDS011;3829;50.798;4.358;2023-04-07T11:58:28;5.97;;;2.57;;
7575;SDS011;3829;50.798;4.358;2023-04-07T12:00:54;6.17;;;3.20;;
7575;SDS011;3829;50.798;4.358;2023-04-07T12:03:21;11.73;;;3.80;;
7575;SDS011;3829;50.798;4.358;2023-04-07T12:05:47;8.23;;;3.27;;
7575;SDS011;3829;50.798;4.358;2023-04-07T12:08:13;9.40;;;4.10;;
7575;SDS011;3829;50.798;4.358;2023-04-07T12:10:40;11.17;;;3.43;;
7575;SDS011;3829;50.798;4.358;2023-04-07T12:13:07;5.53;;;2.93;;
7575;SDS011;3829;50.798;4.358;2023-04-07T12:15:33;4.30;;;2.90;;
7575;SDS011;3829;50.798;4.358;2023-04-07T12:18:01;6.87;;;3.13;;
7575;SDS011;3829;50.798;4.358;2023-04-07T12:20:27;6.37;;;3.17;;
7575;SDS011;3829;50.798;4.358;2023-04-07T12:22:53;6.97;;;3.23;;
7575;SDS011;3829;50.798;4.358;2023-04-07T12:25:19;7.80;;;3.30;;
7575;SDS011;3829;50.798;4.358;2023-04-07T12:27:44;6.53;;;3.17;;
7575;SDS011;3829;50.798;4.358;2023-04-07T12:30:10;5.53;;;3.30;;
7575;SDS011;3829;50.798;4.358;2023-04-07T12:32:37;4.17;;;2.50;;
7575;SDS011;3829;50.798;4.358;2023-04-07T12:35:03;5.00;;;3.10;;
7575;SDS011;3829;50.798;4.358;2023-04-07T12:37:29;6.40;;;2.70;;
7575;SDS011;3829;50.798;4.358;2023-04-07T12:39:55;5.47;;;3.00;;
7575;SDS011;3829;50.798;4.358;2023-04-07T12:42:21;5.23;;;2.60;;
7575;SDS011;3829;50.798;4.358;2023-04-07T12:44:47;9.47;;;3.10;;
7575;SDS011;3829;50.798;4.358;2023-04-07T12:47:12;5.57;;;2.80;;
7575;SDS011;3829;50.798;4.358;2023-04-07T12:49:38;5.63;;;2.57;;
7575;SDS011;3829;50.798;4.358;2023-04-07T12:52:03;5.20;;;2.50;;
7575;SDS011;3829;50.798;4.358;2023-04-07T12:54:30;4.87;;;3.07;;
7575;SDS011;3829;50.798;4.358;2023-04-07T12:56:56;7.27;;;3.47;;
7575;SDS011;3829;50.798;4.358;2023-04-07T12:59:22;6.73;;;3.33;;
7575;SDS011;3829;50.798;4.358;2023-04-07T13:01:48;8.63;;;3.23;;
7575;SDS011;3829;50.798;4.358;2023-04-07T13:04:14;9.43;;;3.80;;
7575;SDS011;3829;50.798;4.358;2023-04-07T13:06:39;9.33;;;3.73;;
7575;SDS011;3829;50.798;4.358;2023-04-07T13:09:05;9.63;;;3.93;;
7575;SDS011;3829;50.798;4.358;2023-04-07T13:11:31;11.50;;;3.70;;
7575;SDS011;3829;50.798;4.358;2023-04-07T13:13:56;6.83;;;3.60;;
7575;SDS011;3829;50.798;4.358;2023-04-07T13:16:22;5.73;;;3.20;;
7575;SDS011;3829;50.798;4.358;2023-04-07T13:18:47;5.00;;;2.87;;
7575;SDS011;3829;50.798;4.358;2023-04-07T13:21:13;5.97;;;3.00;;
7575;SDS011;3829;50.798;4.358;2023-04-07T13:23:38;8.37;;;3.03;;
7575;SDS011;3829;50.798;4.358;2023-04-07T13:26:04;3.67;;;2.90;;
7575;SDS011;3829;50.798;4.358;2023-04-07T13:28:30;5.07;;;2.83;;
7575;SDS011;3829;50.798;4.358;2023-04-07T13:30:55;5.53;;;3.23;;
7575;SDS011;3829;50.798;4.358;2023-04-07T13:33:21;7.27;;;3.50;;
7575;SDS011;3829;50.798;4.358;2023-04-07T13:35:46;9.03;;;3.50;;
7575;SDS011;3829;50.798;4.358;2023-04-07T13:38:12;7.50;;;3.10;;
7575;SDS011;3829;50.798;4.358;2023-04-07T13:40:38;7.63;;;3.00;;
7575;SDS011;3829;50.798;4.358;2023-04-07T13:43:04;9.17;;;2.77;;
7575;SDS011;3829;50.798;4.358;2023-04-07T13:45:30;6.73;;;2.40;;
7575;SDS011;3829;50.798;4.358;2023-04-07T13:47:56;5.63;;;2.43;;
7575;SDS011;3829;50.798;4.358;2023-04-07T13:50:22;6.27;;;2.50;;
7575;SDS011;3829;50.798;4.358;2023-04-07T13:52:48;9.30;;;2.63;;
7575;SDS011;3829;50.798;4.358;2023-04-07T13:55:14;5.20;;;2.40;;
7575;SDS011;3829;50.798;4.358;2023-04-07T13:57:40;3.47;;;2.20;;
7575;SDS011;3829;50.798;4.358;2023-04-07T14:00:06;5.20;;;2.13;;
7575;SDS011;3829;50.798;4.358;2023-04-07T14:02:32;3.03;;;2.20;;
7575;SDS011;3829;50.798;4.358;2023-04-07T14:04:58;4.53;;;2.07;;
7575;SDS011;3829;50.798;4.358;2023-04-07T14:07:23;3.90;;;2.10;;
7575;SDS011;3829;50.798;4.358;2023-04-07T14:09:49;7.90;;;2.73;;
7575;SDS011;3829;50.798;4.358;2023-04-07T14:12:15;4.93;;;2.70;;
7575;SDS011;3829;50.798;4.358;2023-04-07T14:14:40;7.80;;;2.57;;
7575;SDS011;3829;50.798;4.358;2023-04-07T14:17:06;9.77;;;2.97;;
7575;SDS011;3829;50.798;4.358;2023-04-07T14:19:31;7.93;;;2.70;;
7575;SDS011;3829;50.798;4.358;2023-04-07T14:21:57;6.37;;;2.50;;
7575;SDS011;3829;50.798;4.358;2023-04-07T14:24:23;5.77;;;2.93;;
7575;SDS011;3829;50.798;4.358;2023-04-07T14:26:49;4.80;;;2.50;;
7575;SDS011;3829;50.798;4.358;2023-04-07T14:29:15;10.13;;;3.77;;
7575;SDS011;3829;50.798;4.358;2023-04-07T14:31:41;5.90;;;2.67;;
7575;SDS011;3829;50.798;4.358;2023-04-07T14:34:07;2.83;;;2.17;;
7575;SDS011;3829;50.798;4.358;2023-04-07T14:36:32;8.40;;;3.30;;
7575;SDS011;3829;50.798;4.358;2023-04-07T14:38:58;5.07;;;3.43;;
7575;SDS011;3829;50.798;4.358;2023-04-07T14:41:25;11.10;;;3.60;;
7575;SDS011;3829;50.798;4.358;2023-04-07T14:43:50;5.23;;;3.07;;
7575;SDS011;3829;50.798;4.358;2023-04-07T14:46:23;4.80;;;3.07;;
7575;SDS011;3829;50.798;4.358;2023-04-07T14:48:50;6.20;;;3.60;;
7575;SDS011;3829;50.798;4.358;2023-04-07T14:51:16;4.00;;;3.13;;
7575;SDS011;3829;50.798;4.358;2023-04-07T14:53:42;5.73;;;3.40;;
7575;SDS011;3829;50.798;4.358;2023-04-07T14:56:09;7.03;;;2.90;;
7575;SDS011;3829;50.798;4.358;2023-04-07T14:58:35;5.30;;;2.80;;
7575;SDS011;3829;50.798;4.358;2023-04-07T15:01:03;6.00;;;2.57;;
7575;SDS011;3829;50.798;4.358;2023-04-07T15:03:29;5.07;;;2.40;;
7575;SDS011;3829;50.798;4.358;2023-04-07T15:05:55;5.17;;;2.77;;
7575;SDS011;3829;50.798;4.358;2023-04-07T15:08:20;6.17;;;2.03;;
7575;SDS011;3829;50.798;4.358;2023-04-07T15:10:46;3.03;;;1.93;;
7575;SDS011;3829;50.798;4.358;2023-04-07T15:13:11;2.60;;;1.80;;
7575;SDS011;3829;50.798;4.358;2023-04-07T15:15:37;3.57;;;1.53;;
7575;SDS011;3829;50.798;4.358;2023-04-07T15:18:02;2.90;;;1.60;;